Air Quality Table

TIMESTAMP NO2 SO2 O3 PM10 PM2.5 TEMP HUM AIRPRES WS WD NO
2023-02-03 01:00 32.15 µg/m3 0.57 µg/m3 47.33 µg/m3 23.32 µg/m3 8.4 µg/m3 12.82 °C 83.21 % 1,017.79 mbar 1.62 m/s 293.9 Deg 4.88 µg/m3
2023-02-02 01:00 32.06 µg/m3 0.52 µg/m3 56.26 µg/m3 26.3 µg/m3 8.94 µg/m3 12.15 °C 62.21 % 1,018.79 mbar 1.59 m/s 238.28 Deg 10.42 µg/m3
2023-02-01 01:00 12.76 µg/m3 0.25 µg/m3 72.22 µg/m3 18.32 µg/m3 6.97 µg/m3 13.14 °C 67.52 % 1,014.20 mbar 3.56 m/s 294.04 Deg 1.69 µg/m3
2023-01-31 01:00 28.05 µg/m3 0.43 µg/m3 53.72 µg/m3 22.45 µg/m3 8.59 µg/m3 12.16 °C 73.39 % 1,013.89 mbar 2.08 m/s 243.62 Deg 10.45 µg/m3
2023-01-30 01:00 11.29 µg/m3 0.21 µg/m3 66.76 µg/m3 12.34 µg/m3 6.13 µg/m3 10.94 °C 83.21 % 1,011.04 mbar 2.83 m/s 140.91 Deg 1.47 µg/m3
2023-01-29 01:00 25.72 µg/m3 0.28 µg/m3 58.19 µg/m3 13.81 µg/m3 7.02 µg/m3 10.07 °C 81.54 % 1,006.11 mbar 1.8 m/s 298.11 Deg 5.06 µg/m3
2023-01-28 01:00 24.27 µg/m3 0.23 µg/m3 58.04 µg/m3 16.49 µg/m3 6.79 µg/m3 11.28 °C 82.29 % 1,000.38 mbar 2.39 m/s 310.2 Deg 3.2 µg/m3
2023-01-27 01:00 30.5 µg/m3 0.38 µg/m3 54.61 µg/m3 20.77 µg/m3 6.81 µg/m3 10.8 °C 73.24 % 1,001.80 mbar 2.27 m/s 290.12 Deg 10.76 µg/m3
2023-01-26 01:00 40.39 µg/m3 0.4 µg/m3 49.69 µg/m3 22.83 µg/m3 7.81 µg/m3 12.49 °C 73.24 % 1,008.91 mbar 1.56 m/s 273.98 Deg 12.06 µg/m3
2023-01-25 01:00 8.13 µg/m3 0.23 µg/m3 75.75 µg/m3 11.81 µg/m3 5.35 µg/m3 12.03 °C 72.53 % 1,014.33 mbar 3.23 m/s 170.64 Deg 1.66 µg/m3
2023-01-24 01:00 26.86 µg/m3 0.33 µg/m3 54.45 µg/m3 16.72 µg/m3 5.96 µg/m3 11.59 °C 60.88 % 1,012.68 mbar 1.77 m/s 273.07 Deg 6.23 µg/m3
2023-01-23 01:00 11.03 µg/m3 0.19 µg/m3 65.33 µg/m3 15.52 µg/m3 6.57 µg/m3 10.52 °C 77.67 % 1,006.48 mbar 2.26 m/s 279.7 Deg 0.82 µg/m3
2023-01-22 01:00 9.13 µg/m3 0.18 µg/m3 68.09 µg/m3 20.04 µg/m3 7.1 µg/m3 11.83 °C 61.16 % 1,006.00 mbar 3.6 m/s 280.29 Deg 1.12 µg/m3
2023-01-21 01:00 11.1 µg/m3 0.17 µg/m3 67.93 µg/m3 22.99 µg/m3 3.99 µg/m3 12.16 °C 69.43 % 1,004.97 mbar 4.38 m/s 281.06 Deg 2.28 µg/m3
2023-01-20 01:00 23.18 µg/m3 0.17 µg/m3 58.02 µg/m3 38.08 µg/m3 9.74 µg/m3 11.48 °C 77.25 % 1,003.77 mbar 2.32 m/s 298.92 Deg 3.75 µg/m3
2023-01-19 01:00 5.21 µg/m3 0.06 µg/m3 69.95 µg/m3 200.69 µg/m3 35.47 µg/m3 16.95 °C 74.57 % 999.51 mbar 4.4 m/s 241.02 Deg 0.62 µg/m3
2023-01-18 01:00 4.97 µg/m3 0.06 µg/m3 75.38 µg/m3 82 µg/m3 15.8 µg/m3 16.88 °C 71.59 % 1,001.12 mbar 4.7 m/s 247.54 Deg 0.42 µg/m3
2023-01-17 01:00 11.03 µg/m3 0.09 µg/m3 80.21 µg/m3 27.02 µg/m3 7.26 µg/m3 15.92 °C 76.44 % 1,007.70 mbar 2.64 m/s 260.98 Deg 0.85 µg/m3
2023-01-16 01:00 14.76 µg/m3 0.14 µg/m3 69.14 µg/m3 17.51 µg/m3 5.82 µg/m3 14.88 °C 72.7 % 1,014.14 mbar 2.38 m/s 316.9 Deg 1.13 µg/m3
2023-01-15 01:00 20.01 µg/m3 0.17 µg/m3 55.59 µg/m3 25.71 µg/m3 7.57 µg/m3 15 °C 80.47 % 1,014.25 mbar 2.28 m/s 320.08 Deg 2.87 µg/m3
2023-01-14 01:00 34.88 µg/m3 0.32 µg/m3 39.88 µg/m3 24.95 µg/m3 9.14 µg/m3 14.26 °C 84.7 % 1,015.35 mbar 1.45 m/s 241.09 Deg 12.82 µg/m3
2023-01-13 01:00 25.63 µg/m3 0.27 µg/m3 50.78 µg/m3 24.65 µg/m3 7.38 µg/m3 14.56 °C 83.6 % 1,013.42 mbar 2.42 m/s 307.81 Deg 7.28 µg/m3
2023-01-12 01:00 14.28 µg/m3 0.19 µg/m3 66.82 µg/m3 21.12 µg/m3 6.14 µg/m3 14.39 °C 60.57 % 1,014.29 mbar 3.44 m/s 325.65 Deg 1.51 µg/m3
2023-01-11 01:00 9.34 µg/m3 0.13 µg/m3 74.18 µg/m3 24.13 µg/m3 6.11 µg/m3 14.65 °C 61.4 % 1,011.64 mbar 4.82 m/s 319.94 Deg 1.35 µg/m3
2023-01-10 01:00 8.85 µg/m3 0.1 µg/m3 75.89 µg/m3 28.47 µg/m3 7.84 µg/m3 16.1 °C 79.46 % 1,012.66 mbar 3.48 m/s 260.04 Deg 0.77 µg/m3
2023-01-09 01:00 21.31 µg/m3 0.2 µg/m3 50.42 µg/m3 18.05 µg/m3 8.13 µg/m3 14.8 °C 83.75 % 1,016.99 mbar 1.8 m/s 287.65 Deg 2.68 µg/m3
2023-01-08 01:00 31.79 µg/m3 0.28 µg/m3 24.47 µg/m3 29.94 µg/m3 11.94 µg/m3 14.55 °C 86.34 % 1,017.11 mbar 1.42 m/s 143.34 Deg 7.45 µg/m3
2023-01-07 01:00 38.12 µg/m3 0.39 µg/m3 39.11 µg/m3 30.8 µg/m3 11.82 µg/m3 14.85 °C 81.34 % 1,017.70 mbar 1.47 m/s 193.69 Deg 12.21 µg/m3
2023-01-06 01:00 35.8 µg/m3 0.27 µg/m3 46.49 µg/m3 29.49 µg/m3 10.75 µg/m3 14.63 °C 82.12 % 1,019.09 mbar 1.5 m/s 256.71 Deg 7.4 µg/m3
2023-01-05 01:00 27.29 µg/m3 0.22 µg/m3 46.39 µg/m3 21.27 µg/m3 9.73 µg/m3 15.95 °C 93.66 % 1,021.91 mbar 1.2 m/s 230.49 Deg 7.99 µg/m3

It is to be noted that the data is provisional and subject to quality assurance procedures. For validated data kindly refer your request to contact.air@era.org.mt